PWSweather.com
Personal Weather Stations
Station Observations
KFLSTJOH36
Aberdeen Highland Point, Saint Johns, FL 32259

Aberdeen Highland PointSaint Johns, FL 32259

Lat: 30.082981, Lon: -81.59522

Elevation: 60

Station Type: Acurite 5-in-1 Weather Sensor

High Low Average
Temperature 86.4°F30.2°C 74.3°F23.5°C 79.9°F26.6°C
Dew Point 80.0°F26.7°C 71.1°F21.7°C 75.3°F24.1°C
Winds 11.0 mph 17.7 kmh Calm Calm 2.0 mph E3.2 kmh E
Wind Gusts -- -- --
Humidity 93% 72% 86%
Pressure 30.16 in1021.3 mb 30.04 in1017.3 mb -
Precipitation 0.16 in4.1 mm - -
Hour Temp Dew Point Humidity Winds Wind Gusts Pressure Precip Precip Rate Daily Precip Total
12:05 AM 74.5°F23.6°C 72.0°F22.2°C 92% Calm Calm -- 30.06 in1017.9 mb 0.00 in0.0 mm 0.00 in0.0 mm 0.00 in0.0 mm
12:15 AM 74.3°F23.5°C 71.8°F22.1°C 92% Calm Calm -- 30.06 in1017.9 mb 0.00 in0.0 mm 0.00 in0.0 mm 0.00 in0.0 mm
01:15 AM 74.5°F23.6°C 72.0°F22.2°C 92% Calm Calm -- 30.05 in1017.6 mb 0.00 in0.0 mm 0.00 in0.0 mm 0.00 in0.0 mm
01:40 AM 74.5°F23.6°C 72.3°F22.4°C 93% Calm Calm -- 30.06 in1017.9 mb 0.00 in0.0 mm 0.00 in0.0 mm 0.00 in0.0 mm
01:45 AM 74.5°F23.6°C 72.3°F22.4°C 93% Calm Calm -- 30.05 in1017.6 mb 0.00 in0.0 mm 0.00 in0.0 mm 0.00 in0.0 mm
01:50 AM 74.7°F23.7°C 72.5°F22.5°C 93% Calm Calm -- 30.05 in1017.6 mb 0.00 in0.0 mm 0.00 in0.0 mm 0.00 in0.0 mm
02:15 AM 74.8°F23.8°C 72.7°F22.6°C 93% Calm Calm -- 30.05 in1017.6 mb 0.00 in0.0 mm 0.00 in0.0 mm 0.00 in0.0 mm
02:25 AM 75.0°F23.9°C 72.8°F22.7°C 93% Calm Calm -- 30.05 in1017.6 mb 0.00 in0.0 mm 0.00 in0.0 mm 0.00 in0.0 mm
02:30 AM 75.0°F23.9°C 72.8°F22.7°C 93% Calm Calm -- 30.04 in1017.3 mb 0.00 in0.0 mm 0.00 in0.0 mm 0.00 in0.0 mm
02:40 AM 75.0°F23.9°C 72.8°F22.7°C 93% Calm Calm -- 30.05 in1017.6 mb 0.00 in0.0 mm 0.00 in0.0 mm 0.00 in0.0 mm
02:45 AM 74.8°F23.8°C 72.7°F22.6°C 93% Calm Calm -- 30.04 in1017.3 mb 0.00 in0.0 mm 0.00 in0.0 mm 0.00 in0.0 mm
02:50 AM 74.8°F23.8°C 72.7°F22.6°C 93% Calm Calm -- 30.05 in1017.6 mb 0.00 in0.0 mm 0.00 in0.0 mm 0.00 in0.0 mm
03:00 AM 74.8°F23.8°C 72.7°F22.6°C 93% Calm Calm -- 30.05 in1017.6 mb 0.00 in0.0 mm 0.00 in0.0 mm 0.00 in0.0 mm
03:05 AM 75.0°F23.9°C 72.8°F22.7°C 93% Calm Calm -- 30.04 in1017.3 mb 0.00 in0.0 mm 0.00 in0.0 mm 0.00 in0.0 mm
03:15 AM 75.0°F23.9°C 72.8°F22.7°C 93% Calm Calm -- 30.05 in1017.6 mb 0.00 in0.0 mm 0.00 in0.0 mm 0.00 in0.0 mm
03:20 AM 75.0°F23.9°C 72.8°F22.7°C 93% Calm Calm -- 30.04 in1017.3 mb 0.00 in0.0 mm 0.00 in0.0 mm 0.00 in0.0 mm
03:25 AM 75.0°F23.9°C 72.8°F22.7°C 93% Calm Calm -- 30.05 in1017.6 mb 0.00 in0.0 mm 0.00 in0.0 mm 0.00 in0.0 mm
03:40 AM 74.8°F23.8°C 72.7°F22.6°C 93% Calm Calm -- 30.05 in1017.6 mb 0.00 in0.0 mm 0.00 in0.0 mm 0.00 in0.0 mm
03:50 AM 74.8°F23.8°C 72.7°F22.6°C 93% Calm Calm -- 30.05 in1017.6 mb 0.00 in0.0 mm 0.00 in0.0 mm 0.00 in0.0 mm
03:55 AM 75.0°F23.9°C 72.8°F22.7°C 93% Calm Calm -- 30.05 in1017.6 mb 0.00 in0.0 mm 0.00 in0.0 mm 0.00 in0.0 mm
04:00 AM 75.2°F24.0°C 73.0°F22.8°C 93% Calm Calm -- 30.05 in1017.6 mb 0.00 in0.0 mm 0.00 in0.0 mm 0.00 in0.0 mm
04:05 AM 75.2°F24.0°C 73.0°F22.8°C 93% Calm Calm -- 30.06 in1017.9 mb 0.00 in0.0 mm 0.00 in0.0 mm 0.00 in0.0 mm
04:10 AM 75.4°F24.1°C 73.2°F22.9°C 93% Calm Calm -- 30.05 in1017.6 mb 0.00 in0.0 mm 0.00 in0.0 mm 0.00 in0.0 mm
04:20 AM 75.2°F24.0°C 73.0°F22.8°C 93% Calm Calm -- 30.06 in1017.9 mb 0.00 in0.0 mm 0.00 in0.0 mm 0.00 in0.0 mm
04:25 AM 75.2°F24.0°C 73.0°F22.8°C 93% Calm Calm -- 30.05 in1017.6 mb 0.00 in0.0 mm 0.00 in0.0 mm 0.00 in0.0 mm
04:30 AM 75.0°F23.9°C 72.8°F22.7°C 93% Calm Calm -- 30.06 in1017.9 mb 0.00 in0.0 mm 0.00 in0.0 mm 0.00 in0.0 mm
04:35 AM 75.2°F24.0°C 73.0°F22.8°C 93% Calm Calm -- 30.06 in1017.9 mb 0.00 in0.0 mm 0.00 in0.0 mm 0.00 in0.0 mm
04:40 AM 75.4°F24.1°C 73.2°F22.9°C 93% Calm Calm -- 30.06 in1017.9 mb 0.00 in0.0 mm 0.00 in0.0 mm 0.00 in0.0 mm
05:00 AM 75.6°F24.2°C 73.4°F23.0°C 93% Calm Calm -- 30.06 in1017.9 mb 0.00 in0.0 mm 0.00 in0.0 mm 0.00 in0.0 mm
05:20 AM 75.6°F24.2°C 73.4°F23.0°C 93% Calm Calm -- 30.07 in1018.3 mb 0.00 in0.0 mm 0.00 in0.0 mm 0.00 in0.0 mm
05:35 AM 75.7°F24.3°C 73.6°F23.1°C 93% Calm Calm -- 30.08 in1018.6 mb 0.00 in0.0 mm 0.00 in0.0 mm 0.00 in0.0 mm
05:45 AM 75.7°F24.3°C 73.6°F23.1°C 93% Calm Calm -- 30.08 in1018.6 mb 0.00 in0.0 mm 0.00 in0.0 mm 0.00 in0.0 mm
05:50 AM 75.7°F24.3°C 73.6°F23.1°C 93% Calm Calm -- 30.07 in1018.3 mb 0.00 in0.0 mm 0.00 in0.0 mm 0.00 in0.0 mm
05:55 AM 75.7°F24.3°C 73.6°F23.1°C 93% Calm Calm -- 30.08 in1018.6 mb 0.00 in0.0 mm 0.00 in0.0 mm 0.00 in0.0 mm
06:05 AM 75.6°F24.2°C 73.4°F23.0°C 93% Calm Calm -- 30.08 in1018.6 mb 0.00 in0.0 mm 0.00 in0.0 mm 0.00 in0.0 mm
06:10 AM 75.2°F24.0°C 73.0°F22.8°C 93% Calm Calm -- 30.08 in1018.6 mb 0.00 in0.0 mm 0.00 in0.0 mm 0.00 in0.0 mm
06:15 AM 75.4°F24.1°C 73.2°F22.9°C 93% Calm Calm -- 30.08 in1018.6 mb 0.00 in0.0 mm 0.00 in0.0 mm 0.00 in0.0 mm
06:30 AM 75.4°F24.1°C 73.2°F22.9°C 93% Calm Calm -- 30.09 in1019.0 mb 0.00 in0.0 mm 0.00 in0.0 mm 0.00 in0.0 mm
06:35 AM 75.6°F24.2°C 73.4°F23.0°C 93% Calm Calm -- 30.08 in1018.6 mb 0.00 in0.0 mm 0.00 in0.0 mm 0.00 in0.0 mm
06:40 AM 75.6°F24.2°C 73.4°F23.0°C 93% Calm Calm -- 30.09 in1019.0 mb 0.00 in0.0 mm 0.00 in0.0 mm 0.00 in0.0 mm
06:50 AM 75.7°F24.3°C 73.6°F23.1°C 93% Calm Calm -- 30.09 in1019.0 mb 0.00 in0.0 mm 0.00 in0.0 mm 0.00 in0.0 mm
06:55 AM 75.9°F24.4°C 73.7°F23.2°C 93% Calm Calm -- 30.09 in1019.0 mb 0.00 in0.0 mm 0.00 in0.0 mm 0.00 in0.0 mm
07:00 AM 76.3°F24.6°C 74.1°F23.4°C 93% Calm Calm -- 30.09 in1019.0 mb 0.00 in0.0 mm 0.00 in0.0 mm 0.00 in0.0 mm
07:05 AM 76.6°F24.8°C 74.5°F23.6°C 93% Calm Calm -- 30.09 in1019.0 mb 0.00 in0.0 mm 0.00 in0.0 mm 0.00 in0.0 mm
07:10 AM 76.8°F24.9°C 74.6°F23.7°C 93% Calm Calm -- 30.08 in1018.6 mb 0.00 in0.0 mm 0.00 in0.0 mm 0.00 in0.0 mm
07:15 AM 77.0°F25.0°C 74.8°F23.8°C 93% Calm Calm -- 30.09 in1019.0 mb 0.00 in0.0 mm 0.00 in0.0 mm 0.00 in0.0 mm
07:20 AM 77.7°F25.4°C 75.5°F24.2°C 93% Calm Calm -- 30.09 in1019.0 mb 0.00 in0.0 mm 0.00 in0.0 mm 0.00 in0.0 mm
07:25 AM 78.1°F25.6°C 75.9°F24.4°C 93% Calm Calm -- 30.09 in1019.0 mb 0.00 in0.0 mm 0.00 in0.0 mm 0.00 in0.0 mm
07:30 AM 78.6°F25.9°C 76.1°F24.5°C 92% Calm Calm -- 30.09 in1019.0 mb 0.00 in0.0 mm 0.00 in0.0 mm 0.00 in0.0 mm
07:35 AM 79.2°F26.2°C 77.0°F25.0°C 93% Calm Calm -- 30.09 in1019.0 mb 0.00 in0.0 mm 0.00 in0.0 mm 0.00 in0.0 mm
07:40 AM 79.2°F26.2°C 76.6°F24.8°C 92% Calm Calm -- 30.09 in1019.0 mb 0.00 in0.0 mm 0.00 in0.0 mm 0.00 in0.0 mm
07:45 AM 79.2°F26.2°C 76.3°F24.6°C 91% Calm Calm -- 30.09 in1019.0 mb 0.00 in0.0 mm 0.00 in0.0 mm 0.00 in0.0 mm
07:50 AM 79.7°F26.5°C 76.8°F24.9°C 91% Calm Calm -- 30.09 in1019.0 mb 0.00 in0.0 mm 0.00 in0.0 mm 0.00 in0.0 mm
07:55 AM 80.1°F26.7°C 77.2°F25.1°C 91% Calm Calm -- 30.09 in1019.0 mb 0.00 in0.0 mm 0.00 in0.0 mm 0.00 in0.0 mm
08:00 AM 80.2°F26.8°C 77.4°F25.2°C 91% Calm Calm -- 30.09 in1019.0 mb 0.00 in0.0 mm 0.00 in0.0 mm 0.00 in0.0 mm
08:05 AM 80.6°F27.0°C 77.1°F25.1°C 89% Calm Calm -- 30.09 in1019.0 mb 0.00 in0.0 mm 0.00 in0.0 mm 0.00 in0.0 mm
08:10 AM 81.5°F27.5°C 77.6°F25.3°C 88% Calm Calm -- 30.09 in1019.0 mb 0.00 in0.0 mm 0.00 in0.0 mm 0.00 in0.0 mm
08:15 AM 82.6°F28.1°C 78.3°F25.7°C 87% Calm Calm -- 30.10 in1019.3 mb 0.00 in0.0 mm 0.00 in0.0 mm 0.00 in0.0 mm
08:20 AM 81.0°F27.2°C 77.1°F25.1°C 88% Calm Calm -- 30.10 in1019.3 mb 0.00 in0.0 mm 0.00 in0.0 mm 0.00 in0.0 mm
08:25 AM 81.9°F27.7°C 77.6°F25.3°C 87% Calm Calm -- 30.10 in1019.3 mb 0.00 in0.0 mm 0.00 in0.0 mm 0.00 in0.0 mm
08:30 AM 82.2°F27.9°C 77.6°F25.3°C 86% 2.0 mph S3.2 kmh S -- 30.10 in1019.3 mb 0.00 in0.0 mm 0.00 in0.0 mm 0.00 in0.0 mm
08:35 AM 82.0°F27.8°C 77.8°F25.4°C 87% Calm Calm -- 30.10 in1019.3 mb 0.00 in0.0 mm 0.00 in0.0 mm 0.00 in0.0 mm
08:40 AM 82.2°F27.9°C 78.0°F25.6°C 87% 1.0 mph SSE1.6 kmh SSE -- 30.10 in1019.3 mb 0.00 in0.0 mm 0.00 in0.0 mm 0.00 in0.0 mm
08:45 AM 82.2°F27.9°C 78.0°F25.6°C 87% 1.0 mph SSW1.6 kmh SSW -- 30.10 in1019.3 mb 0.00 in0.0 mm 0.00 in0.0 mm 0.00 in0.0 mm
08:50 AM 83.1°F28.4°C 78.5°F25.8°C 86% Calm Calm -- 30.10 in1019.3 mb 0.00 in0.0 mm 0.00 in0.0 mm 0.00 in0.0 mm
08:55 AM 83.3°F28.5°C 78.7°F25.9°C 86% 1.0 mph ESE1.6 kmh ESE -- 30.10 in1019.3 mb 0.00 in0.0 mm 0.00 in0.0 mm 0.00 in0.0 mm
09:00 AM 83.3°F28.5°C 78.7°F25.9°C 86% Calm Calm -- 30.10 in1019.3 mb 0.00 in0.0 mm 0.00 in0.0 mm 0.00 in0.0 mm
09:05 AM 83.3°F28.5°C 78.7°F25.9°C 86% 2.0 mph ESE3.2 kmh ESE -- 30.10 in1019.3 mb 0.00 in0.0 mm 0.00 in0.0 mm 0.00 in0.0 mm
09:10 AM 83.7°F28.7°C 78.7°F25.9°C 85% 2.0 mph E3.2 kmh E -- 30.11 in1019.6 mb 0.00 in0.0 mm 0.00 in0.0 mm 0.00 in0.0 mm
09:15 AM 83.5°F28.6°C 78.5°F25.8°C 85% 4.0 mph ESE6.4 kmh ESE -- 30.11 in1019.6 mb 0.00 in0.0 mm 0.00 in0.0 mm 0.00 in0.0 mm
09:20 AM 83.5°F28.6°C 78.5°F25.8°C 85% 3.0 mph ENE4.8 kmh ENE -- 30.11 in1019.6 mb 0.00 in0.0 mm 0.00 in0.0 mm 0.00 in0.0 mm
09:25 AM 83.8°F28.8°C 78.5°F25.8°C 84% 2.0 mph ESE3.2 kmh ESE -- 30.11 in1019.6 mb 0.00 in0.0 mm 0.00 in0.0 mm 0.00 in0.0 mm
09:30 AM 84.7°F29.3°C 79.0°F26.1°C 83% 1.0 mph S1.6 kmh S -- 30.11 in1019.6 mb 0.00 in0.0 mm 0.00 in0.0 mm 0.00 in0.0 mm
09:35 AM 84.6°F29.2°C 78.5°F25.8°C 82% 2.0 mph SE3.2 kmh SE -- 30.11 in1019.6 mb 0.00 in0.0 mm 0.00 in0.0 mm 0.00 in0.0 mm
09:40 AM 84.6°F29.2°C 79.2°F26.2°C 84% 2.0 mph E3.2 kmh E -- 30.11 in1019.6 mb 0.00 in0.0 mm 0.00 in0.0 mm 0.00 in0.0 mm
09:45 AM 84.2°F29.0°C 78.8°F26.0°C 84% 3.0 mph ENE4.8 kmh ENE -- 30.11 in1019.6 mb 0.00 in0.0 mm 0.00 in0.0 mm 0.00 in0.0 mm
09:50 AM 84.0°F28.9°C 78.7°F25.9°C 84% 2.0 mph ESE3.2 kmh ESE -- 30.11 in1019.6 mb 0.00 in0.0 mm 0.00 in0.0 mm 0.00 in0.0 mm
09:55 AM 84.4°F29.1°C 78.7°F25.9°C 83% 3.0 mph E4.8 kmh E -- 30.11 in1019.6 mb 0.00 in0.0 mm 0.00 in0.0 mm 0.00 in0.0 mm
10:00 AM 84.4°F29.1°C 78.7°F25.9°C 83% 1.0 mph S1.6 kmh S -- 30.11 in1019.6 mb 0.00 in0.0 mm 0.00 in0.0 mm 0.00 in0.0 mm
10:05 AM 84.9°F29.4°C 79.2°F26.2°C 83% 4.0 mph ENE6.4 kmh ENE -- 30.11 in1019.6 mb 0.00 in0.0 mm 0.00 in0.0 mm 0.00 in0.0 mm
10:10 AM 85.8°F29.9°C 79.3°F26.3°C 81% 1.0 mph SE1.6 kmh SE -- 30.11 in1019.6 mb 0.00 in0.0 mm 0.00 in0.0 mm 0.00 in0.0 mm
10:15 AM 86.0°F30.0°C 79.5°F26.4°C 81% 1.0 mph E1.6 kmh E -- 30.11 in1019.6 mb 0.00 in0.0 mm 0.00 in0.0 mm 0.00 in0.0 mm
10:20 AM 85.8°F29.9°C 79.3°F26.3°C 81% 2.0 mph SSE3.2 kmh SSE -- 30.11 in1019.6 mb 0.00 in0.0 mm 0.00 in0.0 mm 0.00 in0.0 mm
10:25 AM 86.0°F30.0°C 79.5°F26.4°C 81% 1.0 mph ESE1.6 kmh ESE -- 30.11 in1019.6 mb 0.00 in0.0 mm 0.00 in0.0 mm 0.00 in0.0 mm
10:30 AM 86.4°F30.2°C 79.5°F26.4°C 80% 1.0 mph ESE1.6 kmh ESE -- 30.11 in1019.6 mb 0.00 in0.0 mm 0.00 in0.0 mm 0.00 in0.0 mm
10:35 AM 86.0°F30.0°C 79.1°F26.2°C 80% 2.0 mph ESE3.2 kmh ESE -- 30.11 in1019.6 mb 0.00 in0.0 mm 0.00 in0.0 mm 0.00 in0.0 mm
10:40 AM 85.8°F29.9°C 79.3°F26.3°C 81% Calm Calm -- 30.11 in1019.6 mb 0.00 in0.0 mm 0.00 in0.0 mm 0.00 in0.0 mm
10:45 AM 86.2°F30.1°C 80.0°F26.7°C 82% Calm Calm -- 30.11 in1019.6 mb 0.00 in0.0 mm 0.00 in0.0 mm 0.00 in0.0 mm
10:50 AM 85.3°F29.6°C 78.8°F26.0°C 81% 3.0 mph E4.8 kmh E -- 30.11 in1019.6 mb 0.00 in0.0 mm 0.00 in0.0 mm 0.00 in0.0 mm
10:55 AM 84.7°F29.3°C 79.0°F26.1°C 83% 3.0 mph E4.8 kmh E -- 30.12 in1020.0 mb 0.00 in0.0 mm 0.00 in0.0 mm 0.00 in0.0 mm
11:00 AM 84.2°F29.0°C 78.8°F26.0°C 84% 2.0 mph NE3.2 kmh NE -- 30.12 in1020.0 mb 0.00 in0.0 mm 0.00 in0.0 mm 0.00 in0.0 mm
11:05 AM 83.8°F28.8°C 78.5°F25.8°C 84% 3.0 mph ENE4.8 kmh ENE -- 30.12 in1020.0 mb 0.00 in0.0 mm 0.00 in0.0 mm 0.00 in0.0 mm
11:10 AM 83.7°F28.7°C 78.7°F25.9°C 85% 3.0 mph ESE4.8 kmh ESE -- 30.13 in1020.3 mb 0.00 in0.0 mm 0.00 in0.0 mm 0.00 in0.0 mm
11:15 AM 83.3°F28.5°C 78.7°F25.9°C 86% 3.0 mph ENE4.8 kmh ENE -- 30.12 in1020.0 mb 0.00 in0.0 mm 0.00 in0.0 mm 0.00 in0.0 mm
11:20 AM 83.1°F28.4°C 78.5°F25.8°C 86% 4.0 mph NNE6.4 kmh NNE -- 30.12 in1020.0 mb 0.00 in0.0 mm 0.00 in0.0 mm 0.00 in0.0 mm
11:25 AM 82.9°F28.3°C 78.7°F25.9°C 87% 4.0 mph NNE6.4 kmh NNE -- 30.12 in1020.0 mb 0.00 in0.0 mm 0.00 in0.0 mm 0.00 in0.0 mm
11:30 AM 80.4°F26.9°C 75.1°F23.9°C 84% 6.0 mph ENE9.7 kmh ENE -- 30.12 in1020.0 mb 0.00 in0.0 mm 0.00 in0.0 mm 0.00 in0.0 mm
11:35 AM 79.7°F26.5°C 74.4°F23.6°C 84% 6.0 mph 9.7 kmh -- 30.12 in1020.0 mb 0.00 in0.0 mm 0.00 in0.0 mm 0.00 in0.0 mm
11:40 AM 79.0°F26.1°C 73.7°F23.2°C 84% 5.0 mph NE8.0 kmh NE -- 30.12 in1020.0 mb 0.00 in0.0 mm 0.00 in0.0 mm 0.00 in0.0 mm
11:45 AM 79.2°F26.2°C 73.9°F23.3°C 84% 2.0 mph NE3.2 kmh NE -- 30.12 in1020.0 mb 0.00 in0.0 mm 0.00 in0.0 mm 0.00 in0.0 mm
11:50 AM 78.6°F25.9°C 73.7°F23.2°C 85% 2.0 mph NE3.2 kmh NE -- 30.12 in1020.0 mb 0.00 in0.0 mm 0.00 in0.0 mm 0.00 in0.0 mm
11:55 AM 78.4°F25.8°C 73.5°F23.1°C 85% 3.0 mph ENE4.8 kmh ENE -- 30.12 in1020.0 mb 0.00 in0.0 mm 0.00 in0.0 mm 0.00 in0.0 mm
12:00 PM 78.3°F25.7°C 73.0°F22.8°C 84% 2.0 mph ENE3.2 kmh ENE -- 30.12 in1020.0 mb 0.00 in0.0 mm 0.00 in0.0 mm 0.00 in0.0 mm
12:05 PM 78.6°F25.9°C 73.0°F22.8°C 83% 1.0 mph NE1.6 kmh NE -- 30.12 in1020.0 mb 0.00 in0.0 mm 0.00 in0.0 mm 0.00 in0.0 mm
12:10 PM 78.4°F25.8°C 72.5°F22.5°C 82% 2.0 mph ENE3.2 kmh ENE -- 30.12 in1020.0 mb 0.00 in0.0 mm 0.00 in0.0 mm 0.00 in0.0 mm
12:15 PM 78.8°F26.0°C 73.2°F22.9°C 83% 1.0 mph NE1.6 kmh NE -- 30.12 in1020.0 mb 0.00 in0.0 mm 0.00 in0.0 mm 0.00 in0.0 mm
12:20 PM 79.0°F26.1°C 73.0°F22.8°C 82% 3.0 mph NE4.8 kmh NE -- 30.12 in1020.0 mb 0.00 in0.0 mm 0.00 in0.0 mm 0.00 in0.0 mm
12:25 PM 79.0°F26.1°C 73.0°F22.8°C 82% 4.0 mph E6.4 kmh E -- 30.12 in1020.0 mb 0.00 in0.0 mm 0.00 in0.0 mm 0.00 in0.0 mm
12:30 PM 78.8°F26.0°C 73.2°F22.9°C 83% 3.0 mph ENE4.8 kmh ENE -- 30.12 in1020.0 mb 0.00 in0.0 mm 0.00 in0.0 mm 0.00 in0.0 mm
12:35 PM 78.8°F26.0°C 73.5°F23.1°C 84% 6.0 mph ENE9.7 kmh ENE -- 30.12 in1020.0 mb 0.00 in0.0 mm 0.00 in0.0 mm 0.00 in0.0 mm
12:40 PM 78.6°F25.9°C 74.1°F23.4°C 86% 4.0 mph E6.4 kmh E -- 30.12 in1020.0 mb 0.00 in0.0 mm 0.00 in0.0 mm 0.00 in0.0 mm
12:45 PM 78.8°F26.0°C 74.2°F23.4°C 86% 4.0 mph ENE6.4 kmh ENE -- 30.12 in1020.0 mb 0.00 in0.0 mm 0.00 in0.0 mm 0.00 in0.0 mm
12:50 PM 79.0°F26.1°C 74.4°F23.6°C 86% 4.0 mph ESE6.4 kmh ESE -- 30.12 in1020.0 mb 0.00 in0.0 mm 0.00 in0.0 mm 0.00 in0.0 mm
12:55 PM 79.2°F26.2°C 74.9°F23.8°C 87% 8.0 mph E12.9 kmh E -- 30.12 in1020.0 mb 0.00 in0.0 mm 0.00 in0.0 mm 0.00 in0.0 mm
01:00 PM 79.3°F26.3°C 75.1°F23.9°C 87% 5.0 mph ENE8.0 kmh ENE -- 30.11 in1019.6 mb 0.00 in0.0 mm 0.00 in0.0 mm 0.00 in0.0 mm
01:05 PM 79.7°F26.5°C 75.1°F23.9°C 86% 7.0 mph E11.3 kmh E -- 30.11 in1019.6 mb 0.00 in0.0 mm 0.00 in0.0 mm 0.00 in0.0 mm
01:10 PM 81.0°F27.2°C 76.0°F24.4°C 85% 6.0 mph NE9.7 kmh NE -- 30.11 in1019.6 mb 0.00 in0.0 mm 0.00 in0.0 mm 0.00 in0.0 mm
01:15 PM 81.5°F27.5°C 76.2°F24.6°C 84% 9.0 mph E14.5 kmh E -- 30.11 in1019.6 mb 0.00 in0.0 mm 0.00 in0.0 mm 0.00 in0.0 mm
01:20 PM 81.7°F27.6°C 76.7°F24.8°C 85% 5.0 mph ESE8.0 kmh ESE -- 30.11 in1019.6 mb 0.00 in0.0 mm 0.00 in0.0 mm 0.00 in0.0 mm
01:25 PM 81.9°F27.7°C 76.5°F24.7°C 84% 2.0 mph ENE3.2 kmh ENE -- 30.11 in1019.6 mb 0.00 in0.0 mm 0.00 in0.0 mm 0.00 in0.0 mm
01:30 PM 82.0°F27.8°C 76.7°F24.8°C 84% 4.0 mph ESE6.4 kmh ESE -- 30.11 in1019.6 mb 0.00 in0.0 mm 0.00 in0.0 mm 0.00 in0.0 mm
01:35 PM 81.9°F27.7°C 76.5°F24.7°C 84% 4.0 mph ENE6.4 kmh ENE -- 30.11 in1019.6 mb 0.00 in0.0 mm 0.00 in0.0 mm 0.00 in0.0 mm
01:40 PM 82.0°F27.8°C 77.1°F25.1°C 85% 4.0 mph ENE6.4 kmh ENE -- 30.12 in1020.0 mb 0.00 in0.0 mm 0.00 in0.0 mm 0.00 in0.0 mm
01:45 PM 82.0°F27.8°C 76.7°F24.8°C 84% 4.0 mph NE6.4 kmh NE -- 30.12 in1020.0 mb 0.00 in0.0 mm 0.00 in0.0 mm 0.00 in0.0 mm
01:50 PM 83.1°F28.4°C 77.4°F25.2°C 83% 3.0 mph NE4.8 kmh NE -- 30.11 in1019.6 mb 0.00 in0.0 mm 0.00 in0.0 mm 0.00 in0.0 mm
01:55 PM 83.7°F28.7°C 77.6°F25.3°C 82% 6.0 mph ESE9.7 kmh ESE -- 30.11 in1019.6 mb 0.00 in0.0 mm 0.00 in0.0 mm 0.00 in0.0 mm
02:00 PM 84.0°F28.9°C 77.6°F25.3°C 81% 3.0 mph E4.8 kmh E -- 30.11 in1019.6 mb 0.00 in0.0 mm 0.00 in0.0 mm 0.00 in0.0 mm
02:05 PM 83.5°F28.6°C 77.0°F25.0°C 81% 7.0 mph NE11.3 kmh NE -- 30.11 in1019.6 mb 0.00 in0.0 mm 0.00 in0.0 mm 0.00 in0.0 mm
02:10 PM 84.2°F29.0°C 77.0°F25.0°C 79% 6.0 mph E9.7 kmh E -- 30.10 in1019.3 mb 0.00 in0.0 mm 0.00 in0.0 mm 0.00 in0.0 mm
02:15 PM 84.6°F29.2°C 77.3°F25.2°C 79% 6.0 mph ENE9.7 kmh ENE -- 30.11 in1019.6 mb 0.00 in0.0 mm 0.00 in0.0 mm 0.00 in0.0 mm
02:20 PM 83.8°F28.8°C 76.6°F24.8°C 79% 5.0 mph NNE8.0 kmh NNE -- 30.11 in1019.6 mb 0.00 in0.0 mm 0.00 in0.0 mm 0.00 in0.0 mm
02:25 PM 84.4°F29.1°C 77.2°F25.1°C 79% 4.0 mph NNE6.4 kmh NNE -- 30.10 in1019.3 mb 0.00 in0.0 mm 0.00 in0.0 mm 0.00 in0.0 mm
02:30 PM 84.7°F29.3°C 77.1°F25.1°C 78% 4.0 mph ESE6.4 kmh ESE -- 30.10 in1019.3 mb 0.00 in0.0 mm 0.00 in0.0 mm 0.00 in0.0 mm
02:35 PM 85.5°F29.7°C 77.8°F25.4°C 78% 9.0 mph ENE14.5 kmh ENE -- 30.10 in1019.3 mb 0.00 in0.0 mm 0.00 in0.0 mm 0.00 in0.0 mm
02:40 PM 86.0°F30.0°C 78.0°F25.6°C 77% 5.0 mph NNW8.0 kmh NNW -- 30.10 in1019.3 mb 0.00 in0.0 mm 0.00 in0.0 mm 0.00 in0.0 mm
02:45 PM 86.4°F30.2°C 77.5°F25.3°C 75% 8.0 mph NE12.9 kmh NE -- 30.10 in1019.3 mb 0.00 in0.0 mm 0.00 in0.0 mm 0.00 in0.0 mm
02:50 PM 86.4°F30.2°C 77.1°F25.1°C 74% 5.0 mph NE8.0 kmh NE -- 30.10 in1019.3 mb 0.00 in0.0 mm 0.00 in0.0 mm 0.00 in0.0 mm
02:55 PM 85.8°F29.9°C 76.6°F24.8°C 74% 4.0 mph ESE6.4 kmh ESE -- 30.10 in1019.3 mb 0.00 in0.0 mm 0.00 in0.0 mm 0.00 in0.0 mm
03:00 PM 86.2°F30.1°C 76.5°F24.7°C 73% 11.0 mph ENE17.7 kmh ENE -- 30.10 in1019.3 mb 0.00 in0.0 mm 0.00 in0.0 mm 0.00 in0.0 mm
03:05 PM 86.0°F30.0°C 76.8°F24.9°C 74% 5.0 mph ESE8.0 kmh ESE -- 30.10 in1019.3 mb 0.00 in0.0 mm 0.00 in0.0 mm 0.00 in0.0 mm
03:10 PM 85.8°F29.9°C 77.0°F25.0°C 75% 3.0 mph E4.8 kmh E -- 30.09 in1019.0 mb 0.00 in0.0 mm 0.00 in0.0 mm 0.00 in0.0 mm
03:15 PM 86.0°F30.0°C 77.6°F25.3°C 76% 4.0 mph NE6.4 kmh NE -- 30.09 in1019.0 mb 0.00 in0.0 mm 0.00 in0.0 mm 0.00 in0.0 mm
03:20 PM 86.4°F30.2°C 77.5°F25.3°C 75% 5.0 mph E8.0 kmh E -- 30.09 in1019.0 mb 0.00 in0.0 mm 0.00 in0.0 mm 0.00 in0.0 mm
03:25 PM 85.6°F29.8°C 76.8°F24.9°C 75% 6.0 mph ESE9.7 kmh ESE -- 30.08 in1018.6 mb 0.00 in0.0 mm 0.00 in0.0 mm 0.00 in0.0 mm
03:30 PM 85.1°F29.5°C 77.1°F25.1°C 77% 5.0 mph NE8.0 kmh NE -- 30.08 in1018.6 mb 0.00 in0.0 mm 0.00 in0.0 mm 0.00 in0.0 mm
03:35 PM 85.1°F29.5°C 75.9°F24.4°C 74% 5.0 mph ENE8.0 kmh ENE -- 30.08 in1018.6 mb 0.00 in0.0 mm 0.00 in0.0 mm 0.00 in0.0 mm
03:40 PM 85.8°F29.9°C 76.6°F24.8°C 74% 5.0 mph E8.0 kmh E -- 30.08 in1018.6 mb 0.00 in0.0 mm 0.00 in0.0 mm 0.00 in0.0 mm
03:45 PM 85.1°F29.5°C 76.3°F24.6°C 75% 8.0 mph ENE12.9 kmh ENE -- 30.08 in1018.6 mb 0.00 in0.0 mm 0.00 in0.0 mm 0.00 in0.0 mm
03:50 PM 84.7°F29.3°C 76.3°F24.6°C 76% 8.0 mph E12.9 kmh E -- 30.08 in1018.6 mb 0.00 in0.0 mm 0.00 in0.0 mm 0.00 in0.0 mm
03:55 PM 85.1°F29.5°C 77.1°F25.1°C 77% 9.0 mph ESE14.5 kmh ESE -- 30.08 in1018.6 mb 0.00 in0.0 mm 0.00 in0.0 mm 0.00 in0.0 mm
04:00 PM 85.1°F29.5°C 76.3°F24.6°C 75% 4.0 mph NNE6.4 kmh NNE -- 30.08 in1018.6 mb 0.00 in0.0 mm 0.00 in0.0 mm 0.00 in0.0 mm
04:05 PM 84.7°F29.3°C 75.9°F24.4°C 75% 8.0 mph E12.9 kmh E -- 30.08 in1018.6 mb 0.00 in0.0 mm 0.00 in0.0 mm 0.00 in0.0 mm
04:10 PM 84.2°F29.0°C 75.8°F24.3°C 76% 6.0 mph NE9.7 kmh NE -- 30.08 in1018.6 mb 0.00 in0.0 mm 0.00 in0.0 mm 0.00 in0.0 mm
04:15 PM 84.2°F29.0°C 75.8°F24.3°C 76% 3.0 mph E4.8 kmh E -- 30.08 in1018.6 mb 0.00 in0.0 mm 0.00 in0.0 mm 0.00 in0.0 mm
04:20 PM 85.3°F29.6°C 76.1°F24.5°C 74% 7.0 mph ENE11.3 kmh ENE -- 30.08 in1018.6 mb 0.00 in0.0 mm 0.00 in0.0 mm 0.00 in0.0 mm
04:25 PM 85.3°F29.6°C 76.1°F24.5°C 74% 3.0 mph ENE4.8 kmh ENE -- 30.08 in1018.6 mb 0.00 in0.0 mm 0.00 in0.0 mm 0.00 in0.0 mm
04:30 PM 85.3°F29.6°C 76.1°F24.5°C 74% 4.0 mph ESE6.4 kmh ESE -- 30.08 in1018.6 mb 0.00 in0.0 mm 0.00 in0.0 mm 0.00 in0.0 mm
04:35 PM 84.0°F28.9°C 75.6°F24.2°C 76% 5.0 mph ESE8.0 kmh ESE -- 30.08 in1018.6 mb 0.00 in0.0 mm 0.00 in0.0 mm 0.00 in0.0 mm
04:40 PM 84.2°F29.0°C 75.0°F23.9°C 74% 5.0 mph ENE8.0 kmh ENE -- 30.08 in1018.6 mb 0.00 in0.0 mm 0.00 in0.0 mm 0.00 in0.0 mm
04:45 PM 84.4°F29.1°C 74.4°F23.6°C 72% 6.0 mph ENE9.7 kmh ENE -- 30.08 in1018.6 mb 0.00 in0.0 mm 0.00 in0.0 mm 0.00 in0.0 mm
04:50 PM 84.4°F29.1°C 74.4°F23.6°C 72% 10.0 mph ENE16.1 kmh ENE -- 30.09 in1019.0 mb 0.00 in0.0 mm 0.00 in0.0 mm 0.00 in0.0 mm
04:55 PM 84.0°F28.9°C 74.8°F23.8°C 74% 6.0 mph ESE9.7 kmh ESE -- 30.08 in1018.6 mb 0.00 in0.0 mm 0.00 in0.0 mm 0.00 in0.0 mm
05:00 PM 84.0°F28.9°C 74.8°F23.8°C 74% 2.0 mph NE3.2 kmh NE -- 30.09 in1019.0 mb 0.00 in0.0 mm 0.00 in0.0 mm 0.00 in0.0 mm
05:05 PM 84.2°F29.0°C 75.4°F24.1°C 75% 2.0 mph E3.2 kmh E -- 30.09 in1019.0 mb 0.00 in0.0 mm 0.00 in0.0 mm 0.00 in0.0 mm
05:10 PM 83.8°F28.8°C 75.1°F23.9°C 75% 4.0 mph NE6.4 kmh NE -- 30.09 in1019.0 mb 0.00 in0.0 mm 0.00 in0.0 mm 0.00 in0.0 mm
05:15 PM 83.3°F28.5°C 74.9°F23.8°C 76% 3.0 mph ESE4.8 kmh ESE -- 30.09 in1019.0 mb 0.00 in0.0 mm 0.00 in0.0 mm 0.00 in0.0 mm
05:20 PM 83.1°F28.4°C 75.2°F24.0°C 77% 5.0 mph E8.0 kmh E -- 30.09 in1019.0 mb 0.00 in0.0 mm 0.00 in0.0 mm 0.00 in0.0 mm
05:25 PM 82.9°F28.3°C 75.4°F24.1°C 78% 4.0 mph 6.4 kmh -- 30.09 in1019.0 mb 0.00 in0.0 mm 0.00 in0.0 mm 0.00 in0.0 mm
05:30 PM 82.2°F27.9°C 74.7°F23.7°C 78% 4.0 mph 6.4 kmh -- 30.09 in1019.0 mb 0.00 in0.0 mm 0.00 in0.0 mm 0.00 in0.0 mm
05:35 PM 82.2°F27.9°C 75.1°F23.9°C 79% 5.0 mph E8.0 kmh E -- 30.09 in1019.0 mb 0.00 in0.0 mm 0.00 in0.0 mm 0.00 in0.0 mm
05:40 PM 82.0°F27.8°C 75.3°F24.1°C 80% 4.0 mph E6.4 kmh E -- 30.09 in1019.0 mb 0.00 in0.0 mm 0.00 in0.0 mm 0.00 in0.0 mm
05:45 PM 81.9°F27.7°C 75.1°F23.9°C 80% 4.0 mph ENE6.4 kmh ENE -- 30.09 in1019.0 mb 0.00 in0.0 mm 0.00 in0.0 mm 0.00 in0.0 mm
05:50 PM 81.7°F27.6°C 74.9°F23.8°C 80% 5.0 mph E8.0 kmh E -- 30.09 in1019.0 mb 0.00 in0.0 mm 0.00 in0.0 mm 0.00 in0.0 mm
05:55 PM 81.5°F27.5°C 75.1°F23.9°C 81% 4.0 mph ENE6.4 kmh ENE -- 30.10 in1019.3 mb 0.00 in0.0 mm 0.00 in0.0 mm 0.00 in0.0 mm
06:00 PM 81.3°F27.4°C 74.9°F23.8°C 81% 4.0 mph NE6.4 kmh NE -- 30.09 in1019.0 mb 0.00 in0.0 mm 0.00 in0.0 mm 0.00 in0.0 mm
06:05 PM 81.1°F27.3°C 75.1°F23.9°C 82% 4.0 mph E6.4 kmh E -- 30.09 in1019.0 mb 0.00 in0.0 mm 0.00 in0.0 mm 0.00 in0.0 mm
06:10 PM 81.1°F27.3°C 75.1°F23.9°C 82% 5.0 mph ENE8.0 kmh ENE -- 30.10 in1019.3 mb 0.00 in0.0 mm 0.00 in0.0 mm 0.00 in0.0 mm
06:15 PM 81.1°F27.3°C 75.1°F23.9°C 82% 4.0 mph NE6.4 kmh NE -- 30.10 in1019.3 mb 0.00 in0.0 mm 0.00 in0.0 mm 0.00 in0.0 mm
06:20 PM 81.0°F27.2°C 75.3°F24.1°C 83% 2.0 mph E3.2 kmh E -- 30.10 in1019.3 mb 0.00 in0.0 mm 0.00 in0.0 mm 0.00 in0.0 mm
06:25 PM 81.0°F27.2°C 75.3°F24.1°C 83% 3.0 mph E4.8 kmh E -- 30.10 in1019.3 mb 0.00 in0.0 mm 0.00 in0.0 mm 0.00 in0.0 mm
06:30 PM 80.8°F27.1°C 75.1°F23.9°C 83% 2.0 mph ENE3.2 kmh ENE -- 30.10 in1019.3 mb 0.00 in0.0 mm 0.00 in0.0 mm 0.00 in0.0 mm
06:35 PM 80.4°F26.9°C 75.1°F23.9°C 84% 4.0 mph ENE6.4 kmh ENE -- 30.10 in1019.3 mb 0.00 in0.0 mm 0.00 in0.0 mm 0.00 in0.0 mm
06:40 PM 79.9°F26.6°C 76.0°F24.4°C 88% 4.0 mph NW6.4 kmh NW -- 30.11 in1019.6 mb 0.06 in1.5 mm 0.72 in18.3 mm 0.06 in1.5 mm
06:45 PM 79.0°F26.1°C 75.8°F24.3°C 90% Calm Calm -- 30.11 in1019.6 mb 0.08 in2.0 mm 0.24 in6.1 mm 0.08 in2.0 mm
06:50 PM 78.8°F26.0°C 75.6°F24.2°C 90% Calm Calm -- 30.11 in1019.6 mb 0.12 in3.0 mm 0.48 in12.2 mm 0.12 in3.0 mm
06:55 PM 78.3°F25.7°C 75.4°F24.1°C 91% Calm Calm -- 30.11 in1019.6 mb 0.13 in3.3 mm 0.12 in3.0 mm 0.13 in3.3 mm
07:00 PM 78.1°F25.6°C 75.6°F24.2°C 92% Calm Calm -- 30.12 in1020.0 mb 0.14 in3.6 mm 0.01 in0.3 mm 0.14 in3.6 mm
07:05 PM 77.7°F25.4°C 75.2°F24.0°C 92% 1.0 mph ENE1.6 kmh ENE -- 30.12 in1020.0 mb 0.15 in3.8 mm 0.12 in3.0 mm 0.15 in3.8 mm
07:10 PM 77.7°F25.4°C 75.2°F24.0°C 92% Calm Calm -- 30.12 in1020.0 mb 0.15 in3.8 mm 0.00 in0.0 mm 0.15 in3.8 mm
07:15 PM 77.7°F25.4°C 75.2°F24.0°C 92% Calm Calm -- 30.12 in1020.0 mb 0.15 in3.8 mm 0.00 in0.0 mm 0.15 in3.8 mm
07:20 PM 77.7°F25.4°C 75.2°F24.0°C 92% Calm Calm -- 30.13 in1020.3 mb 0.15 in3.8 mm 0.00 in0.0 mm 0.15 in3.8 mm
07:25 PM 77.7°F25.4°C 75.2°F24.0°C 92% Calm Calm -- 30.13 in1020.3 mb 0.15 in3.8 mm 0.00 in0.0 mm 0.15 in3.8 mm
07:30 PM 77.5°F25.3°C 75.0°F23.9°C 92% 1.0 mph E1.6 kmh E -- 30.13 in1020.3 mb 0.15 in3.8 mm 0.00 in0.0 mm 0.15 in3.8 mm
07:35 PM 77.2°F25.1°C 75.0°F23.9°C 93% 2.0 mph ENE3.2 kmh ENE -- 30.13 in1020.3 mb 0.08 in2.0 mm 0.00 in0.0 mm 0.15 in3.8 mm
07:40 PM 77.0°F25.0°C 74.8°F23.8°C 93% 2.0 mph ESE3.2 kmh ESE -- 30.13 in1020.3 mb 0.08 in2.0 mm 0.00 in0.0 mm 0.15 in3.8 mm
07:45 PM 77.2°F25.1°C 75.0°F23.9°C 93% 2.0 mph ENE3.2 kmh ENE -- 30.13 in1020.3 mb 0.03 in0.8 mm 0.00 in0.0 mm 0.15 in3.8 mm
07:50 PM 77.0°F25.0°C 74.8°F23.8°C 93% Calm Calm -- 30.13 in1020.3 mb 0.03 in0.8 mm 0.00 in0.0 mm 0.15 in3.8 mm
07:55 PM 77.0°F25.0°C 74.8°F23.8°C 93% Calm Calm -- 30.13 in1020.3 mb 0.01 in0.3 mm 0.00 in0.0 mm 0.15 in3.8 mm
08:05 PM 76.8°F24.9°C 74.6°F23.7°C 93% Calm Calm -- 30.14 in1020.7 mb 0.00 in0.0 mm 0.00 in0.0 mm 0.15 in3.8 mm
08:10 PM 76.8°F24.9°C 74.6°F23.7°C 93% 3.0 mph E4.8 kmh E -- 30.14 in1020.7 mb 0.00 in0.0 mm 0.00 in0.0 mm 0.15 in3.8 mm
08:15 PM 76.8°F24.9°C 74.6°F23.7°C 93% Calm Calm -- 30.14 in1020.7 mb 0.00 in0.0 mm 0.00 in0.0 mm 0.15 in3.8 mm
08:20 PM 76.8°F24.9°C 74.6°F23.7°C 93% 2.0 mph E3.2 kmh E -- 30.14 in1020.7 mb 0.00 in0.0 mm 0.00 in0.0 mm 0.15 in3.8 mm
08:25 PM 76.5°F24.7°C 74.3°F23.5°C 93% 4.0 mph ESE6.4 kmh ESE -- 30.14 in1020.7 mb 0.00 in0.0 mm 0.00 in0.0 mm 0.15 in3.8 mm
08:30 PM 76.1°F24.5°C 73.9°F23.3°C 93% Calm Calm -- 30.14 in1020.7 mb 0.00 in0.0 mm 0.00 in0.0 mm 0.15 in3.8 mm
08:35 PM 75.9°F24.4°C 73.7°F23.2°C 93% 3.0 mph E4.8 kmh E -- 30.14 in1020.7 mb 0.00 in0.0 mm 0.00 in0.0 mm 0.15 in3.8 mm
08:40 PM 75.9°F24.4°C 73.7°F23.2°C 93% 4.0 mph NE6.4 kmh NE -- 30.14 in1020.7 mb 0.00 in0.0 mm 0.00 in0.0 mm 0.15 in3.8 mm
08:45 PM 76.1°F24.5°C 73.9°F23.3°C 93% 2.0 mph NE3.2 kmh NE -- 30.14 in1020.7 mb 0.00 in0.0 mm 0.00 in0.0 mm 0.15 in3.8 mm
08:50 PM 76.1°F24.5°C 73.9°F23.3°C 93% Calm Calm -- 30.14 in1020.7 mb 0.00 in0.0 mm 0.00 in0.0 mm 0.15 in3.8 mm
08:55 PM 76.1°F24.5°C 73.9°F23.3°C 93% 1.0 mph E1.6 kmh E -- 30.14 in1020.7 mb 0.00 in0.0 mm 0.00 in0.0 mm 0.15 in3.8 mm
09:00 PM 76.1°F24.5°C 73.6°F23.1°C 92% 2.0 mph E3.2 kmh E -- 30.14 in1020.7 mb 0.00 in0.0 mm 0.00 in0.0 mm 0.15 in3.8 mm
09:05 PM 75.9°F24.4°C 73.4°F23.0°C 92% 1.0 mph NE1.6 kmh NE -- 30.14 in1020.7 mb 0.00 in0.0 mm 0.00 in0.0 mm 0.15 in3.8 mm
09:15 PM 75.9°F24.4°C 73.4°F23.0°C 92% 2.0 mph E3.2 kmh E -- 30.15 in1021.0 mb 0.00 in0.0 mm 0.00 in0.0 mm 0.15 in3.8 mm
09:20 PM 75.9°F24.4°C 73.4°F23.0°C 92% Calm Calm -- 30.15 in1021.0 mb 0.00 in0.0 mm 0.00 in0.0 mm 0.15 in3.8 mm
09:25 PM 75.9°F24.4°C 73.4°F23.0°C 92% 2.0 mph ENE3.2 kmh ENE -- 30.15 in1021.0 mb 0.00 in0.0 mm 0.00 in0.0 mm 0.15 in3.8 mm
09:30 PM 75.7°F24.3°C 72.9°F22.7°C 91% 2.0 mph ENE3.2 kmh ENE -- 30.15 in1021.0 mb 0.00 in0.0 mm 0.00 in0.0 mm 0.15 in3.8 mm
09:35 PM 75.6°F24.2°C 72.7°F22.6°C 91% 1.0 mph ENE1.6 kmh ENE -- 30.15 in1021.0 mb 0.00 in0.0 mm 0.00 in0.0 mm 0.15 in3.8 mm
09:45 PM 75.6°F24.2°C 72.4°F22.4°C 90% 2.0 mph ENE3.2 kmh ENE -- 30.14 in1020.7 mb 0.00 in0.0 mm 0.00 in0.0 mm 0.15 in3.8 mm
09:50 PM 75.4°F24.1°C 71.9°F22.2°C 89% 3.0 mph ENE4.8 kmh ENE -- 30.15 in1021.0 mb 0.00 in0.0 mm 0.00 in0.0 mm 0.15 in3.8 mm
09:55 PM 75.6°F24.2°C 72.1°F22.3°C 89% 2.0 mph NE3.2 kmh NE -- 30.15 in1021.0 mb 0.01 in0.3 mm 0.12 in3.0 mm 0.16 in4.1 mm
10:00 PM 75.6°F24.2°C 72.1°F22.3°C 89% 1.0 mph NNE1.6 kmh NNE -- 30.15 in1021.0 mb 0.01 in0.3 mm 0.00 in0.0 mm 0.16 in4.1 mm
10:05 PM 75.4°F24.1°C 71.9°F22.2°C 89% 4.0 mph NE6.4 kmh NE -- 30.15 in1021.0 mb 0.01 in0.3 mm 0.00 in0.0 mm 0.16 in4.1 mm
10:10 PM 75.4°F24.1°C 71.6°F22.0°C 88% Calm Calm -- 30.15 in1021.0 mb 0.01 in0.3 mm 0.00 in0.0 mm 0.16 in4.1 mm
10:15 PM 75.4°F24.1°C 71.6°F22.0°C 88% Calm Calm -- 30.15 in1021.0 mb 0.01 in0.3 mm 0.00 in0.0 mm 0.16 in4.1 mm
10:20 PM 75.4°F24.1°C 71.6°F22.0°C 88% 3.0 mph ENE4.8 kmh ENE -- 30.16 in1021.3 mb 0.01 in0.3 mm 0.00 in0.0 mm 0.16 in4.1 mm
10:25 PM 75.4°F24.1°C 71.6°F22.0°C 88% 2.0 mph ENE3.2 kmh ENE -- 30.15 in1021.0 mb 0.01 in0.3 mm 0.00 in0.0 mm 0.16 in4.1 mm
10:30 PM 75.2°F24.0°C 71.4°F21.9°C 88% 2.0 mph ENE3.2 kmh ENE -- 30.16 in1021.3 mb 0.01 in0.3 mm 0.00 in0.0 mm 0.16 in4.1 mm
10:35 PM 75.2°F24.0°C 71.4°F21.9°C 88% 1.0 mph NNE1.6 kmh NNE -- 30.16 in1021.3 mb 0.01 in0.3 mm 0.00 in0.0 mm 0.16 in4.1 mm
10:40 PM 75.2°F24.0°C 71.7°F22.1°C 89% Calm Calm -- 30.16 in1021.3 mb 0.01 in0.3 mm 0.00 in0.0 mm 0.16 in4.1 mm
10:45 PM 75.0°F23.9°C 71.2°F21.8°C 88% 4.0 mph E6.4 kmh E -- 30.16 in1021.3 mb 0.01 in0.3 mm 0.00 in0.0 mm 0.16 in4.1 mm
10:50 PM 75.2°F24.0°C 71.1°F21.7°C 87% 2.0 mph NE3.2 kmh NE -- 30.16 in1021.3 mb 0.01 in0.3 mm 0.00 in0.0 mm 0.16 in4.1 mm